Time;durP1;ratioP1;P1;durP2;ratioP2;P2;SDS_P1;SDS_P2;PMS_P1;PMS_P2;Temp;Humidity;BMP_temperature;BMP_pressure;BME280_temperature;BME280_humidity;BME280_pressure;Samples;Min_cycle;Max_cycle;Signal;HPM_P1;HPM_P2
2023/08/18 00:00:25;;;;;;;1.80;1.40;;;19.10;99.90;;;;;;5032343;28;20032;-87
2023/08/18 00:02:51;;;;;;;2.33;1.50;;;19.10;99.90;;;;;;5048697;28;20067;-87
2023/08/18 00:05:17;;;;;;;2.40;1.90;;;19.10;99.90;;;;;;5025264;28;20037;-87
2023/08/18 00:07:43;;;;;;;2.15;1.60;;;19.00;99.90;;;;;;5056826;28;20051;-88
2023/08/18 00:10:09;;;;;;;2.97;1.98;;;19.00;99.90;;;;;;5023695;28;20041;-89
2023/08/18 00:12:35;;;;;;;1.55;1.45;;;18.80;99.90;;;;;;5018073;28;20662;-88
2023/08/18 00:15:01;;;;;;;1.83;1.40;;;18.80;99.90;;;;;;5030786;28;20045;-88
2023/08/18 00:17:28;;;;;;;4.00;1.70;;;18.80;99.90;;;;;;5055715;28;20079;-88
2023/08/18 00:19:54;;;;;;;3.55;1.63;;;18.80;99.90;;;;;;5019170;28;20041;-89
2023/08/18 00:22:20;;;;;;;2.83;1.50;;;18.80;99.90;;;;;;5042487;28;20047;-86
2023/08/18 00:24:45;;;;;;;2.67;1.75;;;18.60;99.90;;;;;;5022056;28;20040;-87
2023/08/18 00:27:11;;;;;;;1.60;1.20;;;18.60;99.90;;;;;;5034937;28;20044;-86
2023/08/18 00:29:37;;;;;;;2.83;1.25;;;18.60;99.90;;;;;;5016211;28;20040;-89
2023/08/18 00:32:03;;;;;;;1.98;1.60;;;18.70;99.90;;;;;;5047238;28;20048;-88
2023/08/18 00:34:28;;;;;;;2.28;1.30;;;18.70;99.90;;;;;;5026971;28;21680;-89
2023/08/18 00:36:56;;;;;;;2.45;1.92;;;18.70;99.90;;;;;;5038835;28;20040;-89
2023/08/18 00:39:22;;;;;;;2.20;1.70;;;18.80;99.90;;;;;;5055572;28;20048;-88
2023/08/18 00:41:48;;;;;;;2.65;1.67;;;18.70;99.90;;;;;;5038352;28;20078;-88
2023/08/18 00:44:14;;;;;;;2.47;1.63;;;18.70;99.90;;;;;;5038173;28;20040;-88
2023/08/18 00:46:40;;;;;;;3.45;1.60;;;18.80;99.90;;;;;;5054844;28;20083;-88
2023/08/18 00:49:09;;;;;;;2.35;1.48;;;18.90;99.90;;;;;;5054456;28;20044;-87
2023/08/18 00:51:38;;;;;;;1.85;1.40;;;18.90;99.90;;;;;;5022686;28;20487;-88
2023/08/18 00:54:05;;;;;;;1.60;1.50;;;18.80;99.90;;;;;;5054378;28;20098;-88
2023/08/18 00:56:31;;;;;;;2.03;1.42;;;18.90;99.90;;;;;;5038373;28;20492;-89
2023/08/18 00:58:57;;;;;;;2.17;1.52;;;18.90;99.90;;;;;;5054693;28;20045;-88
2023/08/18 01:01:24;;;;;;;2.13;1.73;;;18.90;99.90;;;;;;5054694;28;20289;-88
2023/08/18 01:03:50;;;;;;;3.53;1.65;;;19.00;99.90;;;;;;5051339;28;20041;-88
2023/08/18 01:06:16;;;;;;;3.88;1.73;;;19.00;99.90;;;;;;5036151;28;20047;-88
2023/08/18 01:08:41;;;;;;;1.98;1.65;;;19.00;99.90;;;;;;5050489;28;20681;-88
2023/08/18 01:11:27;;;;;;;2.03;1.63;;;18.90;99.90;;;;;;5054723;28;20037;-89
2023/08/18 01:14:12;;;;;;;3.20;1.75;;;19.00;99.90;;;;;;5040373;28;20096;-86
2023/08/18 01:16:39;;;;;;;;;;;19.00;99.90;;;;;;5055378;28;20036;-88
2023/08/18 01:19:09;;;;;;;2.28;1.50;;;19.00;99.90;;;;;;5053900;28;19920;-87
2023/08/18 01:21:37;;;;;;;2.42;1.58;;;19.00;99.90;;;;;;5054395;28;20072;-89
2023/08/18 01:24:03;;;;;;;3.90;1.88;;;17.00;99.90;;;;;;5048872;28;20045;-87
2023/08/18 01:26:29;;;;;;;3.65;1.60;;;19.10;99.90;;;;;;5030033;28;20521;-88
2023/08/18 01:28:55;;;;;;;1.83;1.67;;;19.00;99.90;;;;;;5017802;28;20083;-88
2023/08/18 01:31:30;;;;;;;2.33;1.70;;;19.00;99.90;;;;;;5035814;28;20127;-87
2023/08/18 01:34:04;;;;;;;2.47;1.88;;;19.10;99.90;;;;;;5053220;28;20418;-89
2023/08/18 01:36:37;;;;;;;2.42;1.98;;;19.20;99.90;;;;;;5054250;28;20036;-88
2023/08/18 01:39:05;;;;;;;2.45;1.75;;;19.10;99.90;;;;;;5054240;28;20048;-86
2023/08/18 01:41:32;;;;;;;2.92;1.80;;;19.10;99.90;;;;;;5053826;28;20121;-89
2023/08/18 01:44:00;;;;;;;3.88;1.83;;;19.00;99.90;;;;;;5034802;28;20127;-88
2023/08/18 01:46:25;;;;;;;5.60;1.90;;;19.10;99.90;;;;;;5028835;28;20499;-88
2023/08/18 01:48:51;;;;;;;3.00;1.90;;;19.10;99.90;;;;;;5020275;28;20124;-88
2023/08/18 01:51:17;;;;;;;3.05;1.77;;;19.20;99.90;;;;;;5034001;28;20068;-87
2023/08/18 01:53:42;;;;;;;2.55;1.90;;;19.10;99.90;;;;;;5043860;28;20075;-88
2023/08/18 01:56:08;;;;;;;3.75;1.90;;;19.10;99.90;;;;;;5037449;28;20090;-87
2023/08/18 01:58:34;;;;;;;6.68;2.03;;;19.00;99.90;;;;;;5054318;28;20076;-87
2023/08/18 02:01:00;;;;;;;3.15;1.90;;;21.10;99.90;;;;;;5034703;28;20041;-88
2023/08/18 02:03:26;;;;;;;2.30;2.10;;;19.10;99.90;;;;;;5017478;28;20041;-88
2023/08/18 02:05:53;;;;;;;2.25;1.90;;;19.10;99.90;;;;;;5052445;28;20119;-87
2023/08/18 02:08:20;;;;;;;3.15;1.90;;;19.00;99.90;;;;;;5037499;28;20695;-89
2023/08/18 02:10:47;;;;;;;2.78;2.00;;;19.10;99.90;;;;;;5054122;28;20040;-87
2023/08/18 02:13:14;;;;;;;2.35;1.90;;;19.10;99.90;;;;;;5033935;28;20052;-89
2023/08/18 02:15:40;;;;;;;2.33;1.83;;;19.10;99.90;;;;;;5023524;28;20091;-87
2023/08/18 02:18:06;;;;;;;2.92;1.88;;;19.10;99.90;;;;;;5046463;28;20439;-89
2023/08/18 02:20:32;;;;;;;2.10;1.88;;;19.10;99.90;;;;;;5053903;28;20068;-88
2023/08/18 02:22:58;;;;;;;3.15;2.10;;;19.10;99.90;;;;;;5058075;28;20044;-88
2023/08/18 02:25:24;;;;;;;3.40;2.10;;;19.30;99.90;;;;;;5040447;28;20191;-88
2023/08/18 02:27:49;;;;;;;3.75;1.98;;;19.10;99.90;;;;;;5021679;28;20041;-88
2023/08/18 02:30:16;;;;;;;2.15;1.95;;;19.10;99.90;;;;;;5075082;28;20055;-87
2023/08/18 02:32:42;;;;;;;3.53;2.53;;;19.10;99.90;;;;;;5058121;28;20245;-87
2023/08/18 02:35:08;;;;;;;3.63;2.78;;;19.10;99.90;;;;;;5057389;28;20037;-88
2023/08/18 02:37:34;;;;;;;3.03;2.35;;;19.10;99.90;;;;;;5056728;28;20381;-87
2023/08/18 02:40:00;;;;;;;3.85;2.28;;;19.10;99.90;;;;;;5038269;28;20152;-87
2023/08/18 02:42:25;;;;;;;4.13;2.60;;;19.20;99.90;;;;;;5048523;28;20532;-88
2023/08/18 02:44:51;;;;;;;6.00;2.70;;;19.20;99.90;;;;;;5015503;28;20037;-87
2023/08/18 02:47:17;;;;;;;5.43;2.75;;;18.40;99.90;;;;;;5009059;28;20098;-87
2023/08/18 02:49:46;;;;;;;4.68;2.35;;;19.20;99.90;;;;;;5047211;28;20068;-87
2023/08/18 02:52:12;;;;;;;3.28;2.53;;;19.20;99.90;;;;;;5056966;28;20119;-88
2023/08/18 02:54:38;;;;;;;4.43;2.30;;;19.20;99.90;;;;;;5040128;28;20620;-88
2023/08/18 02:57:03;;;;;;;5.55;2.75;;;19.20;99.90;;;;;;5056362;28;20447;-87
2023/08/18 02:59:29;;;;;;;4.20;2.65;;;19.30;99.90;;;;;;5031866;28;20070;-89
2023/08/18 03:01:55;;;;;;;4.28;2.40;;;19.20;99.90;;;;;;5036887;28;20041;-89
2023/08/18 03:04:20;;;;;;;5.35;2.70;;;19.20;99.90;;;;;;5021448;28;20049;-89
2023/08/18 03:06:46;;;;;;;4.00;2.35;;;19.10;99.90;;;;;;5023280;28;20500;-87
2023/08/18 03:09:12;;;;;;;4.88;3.00;;;19.20;99.90;;;;;;5036466;28;20044;-89
2023/08/18 03:11:37;;;;;;;3.65;2.53;;;19.30;99.90;;;;;;5036176;28;20036;-89
2023/08/18 03:14:05;;;;;;;5.13;2.65;;;19.20;99.90;;;;;;5030814;28;20564;-89
2023/08/18 03:16:31;;;;;;;6.68;2.88;;;19.10;99.90;;;;;;5055296;28;20036;-88
2023/08/18 03:18:57;;;;;;;5.35;3.03;;;19.30;99.90;;;;;;5057925;28;20040;-88
2023/08/18 03:21:22;;;;;;;4.18;2.55;;;19.10;99.90;;;;;;5043713;28;20126;-88
2023/08/18 03:23:49;;;;;;;5.75;3.20;;;19.30;99.90;;;;;;5072965;28;20044;-90
2023/08/18 03:26:14;;;;;;;4.57;3.22;;;19.30;99.90;;;;;;5033334;28;20073;-88
2023/08/18 03:28:40;;;;;;;3.85;3.30;;;19.20;99.90;;;;;;5038373;28;20094;-88
2023/08/18 03:31:07;;;;;;;5.72;2.97;;;19.20;99.90;;;;;;5066564;28;20046;-88
2023/08/18 03:33:34;;;;;;;5.80;3.40;;;19.20;99.90;;;;;;5061365;28;20045;-88
2023/08/18 03:36:00;;;;;;;5.85;3.55;;;19.30;99.90;;;;;;5054934;28;20040;-88
2023/08/18 03:38:26;;;;;;;4.38;3.15;;;19.30;99.90;;;;;;5022798;28;20391;-88
2023/08/18 03:41:00;;;;;;;4.60;3.03;;;19.10;99.90;;;;;;5041445;28;20040;-88
2023/08/18 03:43:26;;;;;;;3.80;2.83;;;19.30;99.90;;;;;;5059647;28;20044;-88
2023/08/18 03:45:59;;;;;;;4.80;3.03;;;19.30;99.90;;;;;;5075941;28;20040;-87
2023/08/18 03:48:25;;;;;;;3.70;2.83;;;19.20;99.90;;;;;;5062443;28;20088;-88
2023/08/18 03:50:51;;;;;;;7.57;3.75;;;19.20;99.90;;;;;;5066856;28;20556;-88
2023/08/18 03:53:22;;;;;;;5.75;3.47;;;19.40;99.90;;;;;;5058442;28;20122;-88
2023/08/18 03:55:56;;;;;;;4.20;3.08;;;19.20;99.90;;;;;;5060079;28;20379;-88
2023/08/18 03:58:22;;;;;;;;;;;19.20;99.90;;;;;;5043869;28;20098;-88
2023/08/18 04:00:49;;;;;;;4.82;3.00;;;19.30;99.90;;;;;;5060372;28;19915;-88
2023/08/18 04:03:15;;;;;;;4.40;2.75;;;19.50;99.90;;;;;;5037723;28;20072;-88
2023/08/18 04:05:47;;;;;;;4.25;3.13;;;19.40;99.90;;;;;;5026135;28;20376;-88
2023/08/18 04:08:14;;;;;;;5.55;3.40;;;19.30;99.90;;;;;;5051659;28;20397;-88
2023/08/18 04:10:40;;;;;;;4.93;3.42;;;19.40;99.90;;;;;;5046805;28;20040;-89
2023/08/18 04:13:05;;;;;;;4.72;3.10;;;19.40;99.90;;;;;;5065712;28;20527;-89
2023/08/18 04:15:31;;;;;;;5.22;3.35;;;19.30;99.90;;;;;;5042446;28;20043;-87
2023/08/18 04:17:57;;;;;;;5.00;3.30;;;19.30;99.90;;;;;;5035662;28;20048;-88
2023/08/18 04:20:23;;;;;;;2.88;2.55;;;19.30;99.90;;;;;;5049754;28;20606;-89
2023/08/18 04:22:48;;;;;;;4.75;3.40;;;19.40;99.90;;;;;;5035589;28;20037;-88
2023/08/18 04:25:14;;;;;;;5.57;3.60;;;19.20;99.90;;;;;;5026559;28;20037;-87
2023/08/18 04:27:41;;;;;;;4.25;3.10;;;19.40;99.90;;;;;;5059452;28;20104;-87
2023/08/18 04:30:08;;;;;;;5.65;3.28;;;19.40;99.90;;;;;;5048011;28;20395;-88
2023/08/18 04:32:34;;;;;;;4.85;3.17;;;19.30;99.90;;;;;;5038733;28;20043;-88
2023/08/18 04:35:01;;;;;;;3.97;2.85;;;19.40;99.90;;;;;;5022455;28;20056;-87
2023/08/18 04:37:27;;;;;;;5.18;3.33;;;19.50;99.90;;;;;;5022563;28;20028;-86
2023/08/18 04:39:52;;;;;;;6.85;3.40;;;19.30;99.90;;;;;;5026737;28;20066;-88
2023/08/18 04:42:18;;;;;;;4.00;2.95;;;19.30;99.90;;;;;;5041276;28;20101;-88
2023/08/18 04:44:44;;;;;;;3.63;3.03;;;19.40;99.90;;;;;;5073599;28;20032;-88
2023/08/18 04:47:10;;;;;;;5.53;2.95;;;19.40;99.90;;;;;;5042802;28;20046;-87
2023/08/18 04:49:35;;;;;;;3.47;2.97;;;19.40;99.90;;;;;;5042121;28;20046;-87
2023/08/18 04:52:01;;;;;;;5.18;3.58;;;19.30;99.90;;;;;;5042502;28;20070;-88
2023/08/18 04:54:27;;;;;;;4.78;3.22;;;19.50;99.90;;;;;;5063532;28;20100;-87
2023/08/18 04:56:59;;;;;;;6.65;3.75;;;19.50;99.90;;;;;;5054955;28;20103;-87
2023/08/18 04:59:26;;;;;;;5.97;3.60;;;19.30;99.90;;;;;;5054253;28;20040;-88
2023/08/18 05:01:52;;;;;;;5.35;3.70;;;20.80;99.90;;;;;;5064445;28;20111;-87
2023/08/18 05:04:19;;;;;;;7.68;3.42;;;19.50;99.90;;;;;;5060394;28;20425;-88
2023/08/18 05:06:44;;;;;;;4.28;3.35;;;19.30;99.90;;;;;;5051946;28;20392;-89
2023/08/18 05:09:10;;;;;;;6.82;3.92;;;19.40;99.90;;;;;;5054313;28;20107;-86
2023/08/18 05:11:36;;;;;;;4.93;3.20;;;19.30;99.90;;;;;;5036327;28;20043;-87
2023/08/18 05:14:02;;;;;;;5.20;3.33;;;19.60;99.90;;;;;;5002504;28;20102;-87
2023/08/18 05:16:31;;;;;;;5.43;3.90;;;19.50;99.90;;;;;;5019995;28;20067;-86
2023/08/18 05:18:59;;;;;;;5.38;3.40;;;19.50;99.90;;;;;;4986385;28;20660;-87
2023/08/18 05:21:25;;;;;;;4.72;3.40;;;19.50;99.90;;;;;;5034467;28;20755;-87
2023/08/18 05:23:50;;;;;;;5.15;3.58;;;19.50;99.90;;;;;;5022468;28;20688;-87
2023/08/18 05:26:16;;;;;;;5.10;3.20;;;19.40;99.90;;;;;;5004889;28;20044;-88
2023/08/18 05:28:43;;;;;;;5.53;3.60;;;19.40;99.90;;;;;;5020226;28;20225;-87
2023/08/18 05:31:11;;;;;;;6.35;2.97;;;19.70;99.90;;;;;;5029169;28;20041;-88
2023/08/18 05:33:37;;;;;;;4.93;3.17;;;19.10;99.90;;;;;;5038119;28;20129;-88
2023/08/18 05:36:05;;;;;;;4.55;3.10;;;19.50;99.90;;;;;;5036926;28;20523;-89
2023/08/18 05:38:31;;;;;;;8.98;3.60;;;19.60;99.90;;;;;;5037847;28;20044;-88
2023/08/18 05:41:24;;;;;;;4.30;3.20;;;19.50;99.90;;;;;;5017238;28;20041;-88
2023/08/18 05:43:50;;;;;;;6.10;3.53;;;19.60;99.90;;;;;;5034210;28;20044;-88
2023/08/18 05:46:15;;;;;;;5.93;3.75;;;19.50;99.90;;;;;;5004404;28;20052;-88
2023/08/18 05:48:41;;;;;;;4.45;3.38;;;19.70;99.90;;;;;;5025741;28;20047;-87
2023/08/18 05:51:07;;;;;;;4.72;3.60;;;19.70;99.90;;;;;;5002969;28;20075;-88
2023/08/18 05:53:34;;;;;;;4.78;3.80;;;19.50;99.90;;;;;;5037862;28;20453;-88
2023/08/18 05:55:59;;;;;;;4.07;3.20;;;19.50;99.90;;;;;;5041733;28;20381;-88
2023/08/18 05:58:25;;;;;;;5.47;3.50;;;19.50;99.90;;;;;;5041255;28;20041;-88
2023/08/18 06:00:51;;;;;;;5.63;3.53;;;19.10;99.90;;;;;;5024798;28;20098;-87
2023/08/18 06:03:20;;;;;;;5.55;3.85;;;19.50;99.90;;;;;;5039830;28;20083;-88
2023/08/18 06:05:50;;;;;;;6.22;3.65;;;19.60;99.90;;;;;;5037322;28;20527;-86
2023/08/18 06:08:16;;;;;;;6.00;4.25;;;19.70;99.90;;;;;;4989833;28;20542;-87
2023/08/18 06:10:41;;;;;;;5.40;3.58;;;19.70;99.90;;;;;;5036902;28;20646;-87
2023/08/18 06:13:08;;;;;;;6.00;3.30;;;19.80;99.90;;;;;;5007678;28;20128;-87
2023/08/18 06:15:34;;;;;;;6.97;3.60;;;19.90;99.90;;;;;;5056430;28;20083;-87
2023/08/18 06:18:00;;;;;;;7.50;3.97;;;19.80;99.90;;;;;;5056002;28;20053;-86
2023/08/18 06:20:26;;;;;;;7.35;4.22;;;19.80;99.90;;;;;;5035135;28;20056;-88
2023/08/18 06:22:52;;;;;;;5.68;3.47;;;20.10;99.90;;;;;;5009776;28;20047;-87
2023/08/18 06:25:19;;;;;;;4.22;3.67;;;19.70;99.90;;;;;;5037529;28;20469;-87
2023/08/18 06:27:45;;;;;;;5.32;3.67;;;19.80;99.90;;;;;;5021099;28;20037;-86
2023/08/18 06:30:11;;;;;;;4.47;3.80;;;20.00;99.90;;;;;;5062815;28;20037;-87
2023/08/18 06:32:37;;;;;;;6.43;3.35;;;19.90;99.90;;;;;;5036867;28;20068;-87
2023/08/18 06:35:03;;;;;;;7.65;4.53;;;20.10;99.90;;;;;;5023195;28;20075;-87
2023/08/18 06:37:29;;;;;;;5.95;3.80;;;20.20;99.90;;;;;;5056390;28;20434;-90
2023/08/18 06:39:55;;;;;;;5.43;3.97;;;20.10;99.90;;;;;;5039553;28;20041;-88
2023/08/18 06:42:21;;;;;;;7.15;3.92;;;20.00;99.90;;;;;;5037587;28;20376;-88
2023/08/18 06:44:47;;;;;;;6.90;3.55;;;20.00;99.90;;;;;;5033677;28;20040;-87
2023/08/18 06:47:13;;;;;;;7.30;4.50;;;20.00;99.90;;;;;;5037777;28;20043;-88
2023/08/18 06:49:38;;;;;;;6.70;4.80;;;20.00;99.90;;;;;;5022025;28;20484;-89
2023/08/18 06:52:04;;;;;;;5.10;4.28;;;19.90;99.90;;;;;;5020330;28;20766;-88
2023/08/18 06:54:30;;;;;;;7.95;4.50;;;19.90;99.90;;;;;;5033143;28;20064;-89
2023/08/18 06:56:56;;;;;;;4.28;3.78;;;20.00;99.90;;;;;;5039817;28;20464;-87
2023/08/18 06:59:22;;;;;;;7.47;5.03;;;20.10;99.90;;;;;;5039346;28;20484;-89
2023/08/18 07:01:47;;;;;;;6.47;4.65;;;20.00;99.90;;;;;;5019951;28;20076;-89
2023/08/18 07:04:13;;;;;;;8.45;5.57;;;20.10;99.90;;;;;;5022339;28;20193;-89
2023/08/18 07:06:43;;;;;;;7.97;5.70;;;20.10;99.90;;;;;;5038428;28;20043;-87
2023/08/18 07:09:09;;;;;;;7.82;5.90;;;20.00;99.90;;;;;;5055016;28;20492;-89
2023/08/18 07:11:36;;;;;;;7.38;5.68;;;19.60;99.90;;;;;;5030862;28;20653;-90
2023/08/18 07:14:03;;;;;;;9.70;6.78;;;20.30;99.90;;;;;;5022273;28;20040;-88
2023/08/18 07:16:35;;;;;;;7.40;5.53;;;20.20;99.90;;;;;;5016484;28;20037;-88
2023/08/18 07:19:01;;;;;;;9.82;5.72;;;20.10;99.90;;;;;;5020630;28;20640;-89
2023/08/18 07:21:26;;;;;;;10.68;5.80;;;20.10;99.90;;;;;;5028357;28;20064;-88
2023/08/18 07:23:52;;;;;;;6.55;4.82;;;20.20;99.90;;;;;;5019814;28;20088;-88
2023/08/18 07:26:18;;;;;;;9.93;5.38;;;20.20;99.90;;;;;;5013809;28;20040;-89
2023/08/18 07:28:43;;;;;;;9.68;6.53;;;20.10;99.90;;;;;;5011564;28;20033;-88
2023/08/18 07:31:10;;;;;;;9.90;6.97;;;20.10;99.90;;;;;;5039135;28;20032;-90
2023/08/18 07:33:36;;;;;;;9.38;7.65;;;20.30;99.90;;;;;;5020877;28;20079;-88
2023/08/18 07:36:02;;;;;;;9.90;8.07;;;20.30;99.90;;;;;;5019012;28;20072;-88
2023/08/18 07:38:29;;;;;;;10.32;7.15;;;20.30;99.90;;;;;;5033750;28;20115;-87
2023/08/18 07:40:55;;;;;;;13.07;7.68;;;20.10;99.90;;;;;;5033430;28;20103;-88
2023/08/18 07:43:21;;;;;;;11.55;7.60;;;20.20;99.90;;;;;;5003887;28;20040;-88
2023/08/18 07:45:47;;;;;;;11.13;7.78;;;20.50;99.90;;;;;;5017356;28;20042;-88
2023/08/18 07:48:13;;;;;;;10.57;6.93;;;20.40;99.90;;;;;;5016129;28;20040;-87
2023/08/18 07:50:42;;;;;;;16.17;6.95;;;20.50;99.90;;;;;;5002854;28;20082;-87
2023/08/18 07:53:08;;;;;;;8.07;5.82;;;20.50;99.90;;;;;;5015789;28;20041;-87
2023/08/18 07:55:36;;;;;;;7.80;5.03;;;20.60;99.90;;;;;;5032283;28;20093;-87
2023/08/18 07:58:03;;;;;;;8.98;5.85;;;20.50;99.90;;;;;;5014938;28;20067;-88
2023/08/18 08:00:35;;;;;;;8.55;5.65;;;20.80;99.90;;;;;;5032783;28;20068;-87
2023/08/18 08:03:01;;;;;;;8.13;5.60;;;20.70;99.90;;;;;;5036455;28;20047;-87
2023/08/18 08:05:27;;;;;;;8.65;5.75;;;20.80;99.90;;;;;;5017421;28;20037;-89
2023/08/18 08:07:53;;;;;;;6.68;5.32;;;21.10;99.90;;;;;;5035417;28;20036;-88
2023/08/18 08:10:19;;;;;;;7.78;4.68;;;21.00;99.90;;;;;;5028819;28;20032;-87
2023/08/18 08:12:45;;;;;;;9.48;5.53;;;20.90;99.90;;;;;;5028866;28;20052;-88
2023/08/18 08:15:13;;;;;;;8.00;4.90;;;21.10;99.90;;;;;;5029186;28;20106;-86
2023/08/18 08:17:39;;;;;;;6.43;4.65;;;21.10;99.90;;;;;;5038937;28;20048;-87
2023/08/18 08:20:16;;;;;;;8.27;5.40;;;21.20;99.90;;;;;;5038593;28;20044;-87
2023/08/18 08:22:43;;;;;;;6.55;5.13;;;21.10;99.90;;;;;;5053688;28;20043;-88
2023/08/18 08:25:10;;;;;;;6.85;5.45;;;21.50;99.90;;;;;;5039058;28;20400;-88
2023/08/18 08:27:36;;;;;;;7.80;5.32;;;21.40;99.90;;;;;;5038413;28;20052;-88
2023/08/18 08:30:03;;;;;;;9.25;5.50;;;21.50;99.90;;;;;;5038677;28;20384;-88
2023/08/18 08:32:29;;;;;;;10.70;4.80;;;21.40;99.90;;;;;;5025536;28;20032;-88
2023/08/18 08:34:55;;;;;;;5.88;3.90;;;21.60;99.90;;;;;;5013488;28;20046;-87
2023/08/18 08:37:20;;;;;;;7.10;4.88;;;21.40;99.90;;;;;;5025438;28;20032;-86
2023/08/18 08:39:46;;;;;;;8.80;4.95;;;21.30;99.90;;;;;;5041260;28;20047;-87
2023/08/18 08:42:12;;;;;;;7.55;4.78;;;21.30;99.90;;;;;;5057936;28;20036;-88
2023/08/18 08:44:39;;;;;;;7.80;4.93;;;21.30;99.90;;;;;;5039570;28;20484;-87
2023/08/18 08:47:05;;;;;;;7.72;5.22;;;21.40;99.90;;;;;;5053833;28;20119;-89
2023/08/18 08:49:32;;;;;;;6.18;5.28;;;21.60;99.90;;;;;;5042671;28;20123;-88
2023/08/18 08:52:08;;;;;;;8.20;5.47;;;21.50;99.90;;;;;;5051684;28;20438;-89
2023/08/18 08:54:39;;;;;;;5.78;4.28;;;21.70;99.90;;;;;;5058431;28;20038;-88
2023/08/18 08:57:06;;;;;;;7.30;4.80;;;21.80;99.90;;;;;;5058242;28;20044;-88
2023/08/18 08:59:33;;;;;;;5.40;4.80;;;21.70;99.90;;;;;;5038482;28;20101;-87
2023/08/18 09:01:59;;;;;;;5.45;4.30;;;21.80;99.90;;;;;;5040892;28;20047;-88
2023/08/18 09:04:25;;;;;;;5.28;4.22;;;21.60;99.90;;;;;;5021883;28;20037;-90
2023/08/18 09:06:51;;;;;;;4.95;3.72;;;21.70;99.90;;;;;;5037930;28;20186;-90
2023/08/18 09:09:18;;;;;;;8.55;4.50;;;21.80;99.90;;;;;;5038291;28;20463;-89
2023/08/18 09:11:46;;;;;;;5.60;4.50;;;21.90;99.90;;;;;;5045795;28;20113;-88
2023/08/18 09:14:16;;;;;;;8.10;5.00;;;22.10;99.90;;;;;;5038922;28;20053;-88
2023/08/18 09:16:44;;;;;;;6.35;4.05;;;21.90;99.90;;;;;;5038304;28;20424;-87
2023/08/18 09:19:14;;;;;;;6.03;4.90;;;22.00;99.90;;;;;;5037842;28;20133;-90
2023/08/18 09:21:41;;;;;;;6.57;4.25;;;22.10;99.90;;;;;;5002258;28;20094;-89
2023/08/18 09:24:08;;;;;;;5.45;4.78;;;22.10;99.90;;;;;;5035515;28;20044;-89
2023/08/18 09:26:34;;;;;;;7.55;4.43;;;22.00;99.90;;;;;;5023589;28;20124;-91
2023/08/18 09:29:00;;;;;;;5.95;4.53;;;22.10;99.90;;;;;;5062990;28;20094;-90
2023/08/18 09:31:25;;;;;;;5.07;4.50;;;22.00;99.90;;;;;;5018573;28;20036;-90
2023/08/18 09:33:52;;;;;;;6.85;5.10;;;22.20;99.90;;;;;;5014078;28;20043;-88
2023/08/18 09:36:18;;;;;;;6.40;4.90;;;22.20;99.90;;;;;;5042934;28;20136;-91
2023/08/18 09:38:45;;;;;;;7.60;5.82;;;22.50;99.90;;;;;;5026617;28;20040;-88
2023/08/18 09:41:12;;;;;;;6.28;4.55;;;22.60;99.90;;;;;;5042641;28;20044;-88
2023/08/18 09:43:39;;;;;;;5.32;4.78;;;22.80;99.90;;;;;;5035805;28;20072;-87
2023/08/18 09:46:06;;;;;;;5.57;4.93;;;22.70;99.90;;;;;;5023142;28;20040;-88
2023/08/18 09:48:45;;;;;;;7.07;5.30;;;22.90;99.90;;;;;;5038942;28;20094;-88
2023/08/18 09:51:12;;;;;;;8.70;5.50;;;22.80;99.90;;;;;;5020195;28;20037;-88
2023/08/18 09:53:44;;;;;;;6.30;5.65;;;22.80;99.90;;;;;;5024383;28;20483;-89
2023/08/18 09:56:13;;;;;;;7.07;5.28;;;22.90;99.90;;;;;;5022831;28;20041;-89
2023/08/18 09:58:47;;;;;;;7.22;5.15;;;23.00;99.90;;;;;;5049769;28;20045;-88
2023/08/18 10:01:13;;;;;;;;;;;23.00;99.90;;;;;;5025373;28;20049;-89
2023/08/18 10:03:41;;;;;;;6.65;5.13;;;22.90;99.90;;;;;;5007388;28;20015;-88
2023/08/18 10:06:07;;;;;;;7.45;6.30;;;23.20;99.90;;;;;;5039173;28;20120;-88
2023/08/18 10:08:34;;;;;;;8.20;6.65;;;23.00;99.90;;;;;;5034051;28;20041;-89
2023/08/18 10:11:01;;;;;;;10.55;6.53;;;23.20;99.90;;;;;;5043230;28;20040;-88
2023/08/18 10:13:31;;;;;;;6.88;5.65;;;23.40;99.90;;;;;;5023773;28;20075;-89
2023/08/18 10:15:57;;;;;;;8.85;7.18;;;23.30;99.90;;;;;;5047356;28;20128;-88
2023/08/18 10:18:23;;;;;;;7.70;6.38;;;23.30;99.90;;;;;;5025672;28;20502;-89
2023/08/18 10:20:50;;;;;;;8.00;6.30;;;23.30;99.90;;;;;;5024911;28;20123;-89
2023/08/18 10:23:22;;;;;;;7.90;6.10;;;23.40;99.90;;;;;;5041668;28;20044;-87
2023/08/18 10:25:52;;;;;;;6.47;5.85;;;23.40;99.90;;;;;;5057367;28;20047;-88
2023/08/18 10:28:20;;;;;;;7.57;5.68;;;23.60;99.90;;;;;;5024317;28;20126;-87
2023/08/18 10:30:54;;;;;;;9.38;5.60;;;23.60;99.90;;;;;;5075602;28;20074;-89
2023/08/18 10:33:52;;;;;;;6.88;5.75;;;23.50;99.90;;;;;;5061104;28;20063;-88
2023/08/18 10:36:26;;;;;;;8.45;6.15;;;23.60;99.90;;;;;;5017492;28;20066;-88
2023/08/18 10:38:54;;;;;;;5.75;5.15;;;23.50;99.90;;;;;;5060643;28;20109;-88
2023/08/18 10:41:29;;;;;;;6.28;5.68;;;23.60;99.90;;;;;;5060709;28;20048;-88
2023/08/18 10:43:57;;;;;;;5.65;4.75;;;23.60;99.90;;;;;;5060734;28;20090;-88
2023/08/18 10:46:36;;;;;;;6.25;5.50;;;23.70;99.90;;;;;;5077106;28;20053;-88
2023/08/18 10:49:02;;;;;;;6.53;5.65;;;23.20;99.90;;;;;;5041592;28;20126;-88
2023/08/18 10:51:28;;;;;;;8.10;5.80;;;23.80;99.90;;;;;;5024193;28;20056;-88
2023/08/18 10:53:54;;;;;;;7.72;6.00;;;23.90;99.90;;;;;;5040588;28;20510;-88
2023/08/18 10:56:20;;;;;;;9.10;5.95;;;23.90;99.90;;;;;;5007765;28;20043;-88
2023/08/18 10:58:47;;;;;;;6.53;5.68;;;24.10;99.90;;;;;;5026486;28;20037;-88
2023/08/18 11:01:13;;;;;;;7.03;6.20;;;24.00;99.90;;;;;;5043323;28;20041;-87
2023/08/18 11:03:39;;;;;;;8.52;5.80;;;24.10;99.90;;;;;;5040013;28;20119;-87
2023/08/18 11:06:05;;;;;;;8.38;5.72;;;24.00;99.90;;;;;;5040485;28;20040;-88
2023/08/18 11:08:31;;;;;;;6.50;5.90;;;24.30;99.90;;;;;;5040017;28;20489;-88
2023/08/18 11:10:57;;;;;;;7.07;6.15;;;24.30;99.90;;;;;;5051558;28;20032;-90
2023/08/18 11:13:28;;;;;;;6.28;5.40;;;24.20;99.90;;;;;;5016106;28;20067;-88
2023/08/18 11:15:55;;;;;;;6.85;5.75;;;24.50;99.90;;;;;;5056138;28;20040;-87
2023/08/18 11:18:21;;;;;;;7.05;6.20;;;24.50;99.90;;;;;;5056734;28;20037;-90
2023/08/18 11:20:51;;;;;;;9.15;6.28;;;24.80;99.90;;;;;;5022116;28;20048;-88
2023/08/18 11:23:18;;;;;;;8.25;5.95;;;24.50;99.90;;;;;;5054973;28;20067;-89
2023/08/18 11:25:45;;;;;;;7.25;6.22;;;24.60;99.90;;;;;;5003951;28;20091;-88
2023/08/18 11:28:13;;;;;;;6.88;6.20;;;24.80;99.90;;;;;;5020550;28;20041;-87
2023/08/18 11:30:38;;;;;;;7.50;6.70;;;23.60;99.90;;;;;;5006968;28;20427;-89
2023/08/18 11:33:06;;;;;;;8.50;6.93;;;24.80;99.90;;;;;;5039094;28;20098;-89
2023/08/18 11:35:32;;;;;;;9.25;6.78;;;25.00;99.90;;;;;;5023925;28;20354;-88
2023/08/18 11:37:58;;;;;;;8.05;6.70;;;25.10;99.90;;;;;;5056142;28;20059;-87
2023/08/18 11:40:24;;;;;;;7.07;5.65;;;25.20;99.90;;;;;;5023097;28;20127;-88
2023/08/18 11:42:55;;;;;;;9.55;7.22;;;25.30;99.90;;;;;;5039155;28;20369;-89
2023/08/18 11:45:23;;;;;;;7.97;6.68;;;25.10;99.90;;;;;;5039677;28;20097;-88
2023/08/18 11:48:03;;;;;;;8.93;6.65;;;25.20;99.90;;;;;;5036417;28;20047;-89
2023/08/18 11:50:38;;;;;;;8.52;6.30;;;25.40;99.90;;;;;;5019754;28;20508;-89
2023/08/18 11:53:10;;;;;;;7.65;6.63;;;25.30;99.90;;;;;;5039097;28;20044;-86
2023/08/18 11:55:40;;;;;;;8.65;6.18;;;25.60;99.90;;;;;;5039362;28;20126;-89
2023/08/18 11:58:10;;;;;;;7.70;6.60;;;25.60;99.90;;;;;;5023939;28;20389;-89
2023/08/18 12:00:38;;;;;;;8.50;7.45;;;23.90;99.90;;;;;;5038665;28;20123;-88
2023/08/18 12:03:06;;;;;;;7.97;6.82;;;25.80;99.90;;;;;;5039633;28;20519;-88
2023/08/18 12:05:31;;;;;;;7.95;7.10;;;25.60;99.90;;;;;;5023126;28;20051;-88
2023/08/18 12:08:00;;;;;;;8.68;6.88;;;25.80;99.90;;;;;;5039210;28;20497;-88
2023/08/18 12:10:26;;;;;;;8.48;6.75;;;25.80;99.90;;;;;;5039146;28;20033;-88
2023/08/18 12:12:53;;;;;;;9.68;7.25;;;26.10;99.90;;;;;;5040986;28;20514;-88
2023/08/18 12:15:23;;;;;;;7.68;6.82;;;26.30;99.90;;;;;;5039207;28;20040;-88
2023/08/18 12:17:49;;;;;;;8.27;6.68;;;26.60;99.90;;;;;;5055700;28;20043;-87
2023/08/18 12:20:18;;;;;;;9.85;7.28;;;26.80;99.90;;;;;;5055418;28;20115;-88
2023/08/18 12:22:46;;;;;;;9.88;6.95;;;27.00;99.90;;;;;;5054773;28;20109;-87
2023/08/18 12:25:12;;;;;;;7.32;6.53;;;27.30;99.90;;;;;;5038373;28;20049;-88
2023/08/18 12:27:38;;;;;;;8.27;7.05;;;26.90;99.90;;;;;;5056274;28;20037;-89
2023/08/18 12:30:05;;;;;;;7.97;7.18;;;26.70;99.90;;;;;;5055336;28;20041;-89
2023/08/18 12:32:32;;;;;;;9.18;7.90;;;27.20;99.90;;;;;;5062188;28;20052;-90
2023/08/18 12:34:58;;;;;;;7.90;7.10;;;26.90;99.90;;;;;;5048288;28;20036;-90
2023/08/18 12:37:24;;;;;;;10.10;7.45;;;27.40;99.90;;;;;;5036060;28;20041;-90
2023/08/18 12:39:50;;;;;;;6.85;6.15;;;27.30;99.90;;;;;;5040662;28;20055;-87
2023/08/18 12:42:16;;;;;;;7.50;6.80;;;27.40;99.90;;;;;;5038933;28;20044;-88
2023/08/18 12:44:42;;;;;;;8.27;7.53;;;28.10;99.90;;;;;;5034481;28;20049;-88
2023/08/18 12:47:07;;;;;;;8.18;7.38;;;28.00;99.90;;;;;;5028447;28;20079;-87